Cleveland, OH (44125)

3:31 PM EST on January 30, 2015 (GMT -0500)
APRSWXNET Cleveland OH US | Change Station
CLOSE
Current Station
Personal Weather Station
Location: Cleveland, OH
Elevation: 690 ft
Nearby Weather Stations

Elev 690 ft 41.47 °N, 81.65 °W | Updated 31 minutes ago

Overcast
Overcast
17 °F
Feels Like 11 °F
N
4
Wind Variable Wind from NW
Gusts 0.0 mph

Today
High -- | Low -- °F
--% Chance of Precip.
Yesterday
High -- | Low -- °F
Precip. -- in
7:40 AM 5:40 PM
Waxing Gibbous, 85% visible
Pressure 30.44 in
Visibility 10.0 miles
Clouds Overcast 3000 ft
Windchill 11 °F
Dew Point 7 °F
Humidity 63%
Rainfall -999.00 in
Snow Depth Not available.
UV 1 out of 12
Pollen .10 out of 12
Air Quality Not available.
Flu Activity Not available.
METAR KBKL 301953Z 31017G23KT 10SM OVC030 M08/M13 A3041 RMK AO2 SLP308 T10781133

More Conditions Fewer Conditions

Pressure 30.44 in
Visibility 10.0 miles
Clouds Overcast 3000 ft
Windchill 11 °F
Dew Point 7 °F
Humidity 63%
Rainfall -999.00 in
Snow Depth Not available.
UV 1 out of 12
Pollen .10 out of 12
Air Quality Not available.
Flu Activity Not available.
METAR KBKL 301953Z 31017G23KT 10SM OVC030 M08/M13 A3041 RMK AO2 SLP308 T10781133

More Conditions Fewer Conditions

10-Day Weather Forecast

Almanac

Astronomy

Jan. 30, 2015 Rise Set
Actual Time
Civil Twilight
Nautical Twilight
Astronomical Twilight
Moon
Length of Visible Light
Length of Day
Tomorrow will be .
, % of the Moon is Illuminated

Today's Extremes

State Highs State Lows

Community

WunderPhotos

Upload Photos

1,791,889 photos uploaded!

WunderBlogs® & News

Nearby

Air Quality

  Air Quality AQ Index Pollutant
Not available.

Snow Depth

Station Depth Elevation

Earthquake Activity

City Distance Mag. Time & Date
Minimum magnitude displayed is 2.5.

Coastal Water Temperatures

Place Temperature

Nearby Weather Stations